createdAt,value
2019-03-04T00:07:15.740Z,41.5
2019-03-04T00:17:19.266Z,41.5
2019-03-04T00:27:53.084Z,41.5
2019-03-04T00:37:56.607Z,41.5
2019-03-04T00:48:00.157Z,41.4
2019-03-04T00:58:03.686Z,41.3
2019-03-04T01:08:07.197Z,41.2
2019-03-04T01:18:10.715Z,41.1
2019-03-04T01:28:14.201Z,41
2019-03-04T01:38:17.707Z,40.8
2019-03-04T01:48:21.207Z,40.9
2019-03-04T01:58:24.727Z,40.9
2019-03-04T02:08:28.228Z,40.9
2019-03-04T02:18:31.732Z,40.8
2019-03-04T02:28:35.221Z,40.6
2019-03-04T02:38:38.742Z,40.7
2019-03-04T02:48:42.283Z,40.6
2019-03-04T02:58:45.813Z,40.9
2019-03-04T03:08:49.348Z,40.7
2019-03-04T03:18:52.880Z,40.9
2019-03-04T03:28:56.392Z,40.6
2019-03-04T03:38:59.880Z,40.7
2019-03-04T03:49:03.417Z,40.7
2019-03-04T03:59:06.977Z,40.7
2019-03-04T04:09:10.473Z,40.7
2019-03-04T04:19:13.990Z,40.7
2019-03-04T04:29:17.519Z,40.7
2019-03-04T04:39:21.022Z,40.6
2019-03-04T04:49:24.543Z,40.6
2019-03-04T04:59:28.068Z,40.3
2019-03-04T05:09:31.561Z,40.4
2019-03-04T05:19:35.074Z,40.5
2019-03-04T05:29:38.618Z,40.4
2019-03-04T05:39:42.112Z,40.2
2019-03-04T05:49:45.613Z,40.2
2019-03-04T05:59:49.107Z,39.9
2019-03-04T06:09:52.600Z,39.6
2019-03-04T06:19:56.107Z,39.4
2019-03-04T06:29:59.633Z,39.1
2019-03-04T06:40:03.124Z,40.4
2019-03-04T06:50:06.632Z,40.5
2019-03-04T07:00:10.143Z,40.5
2019-03-04T07:10:13.640Z,39.8
2019-03-04T07:20:17.148Z,39.8
2019-03-04T07:30:20.659Z,39.4
2019-03-04T07:42:40.640Z,41.6
2019-03-04T07:53:19.407Z,40.2
2019-03-04T08:06:59.659Z,40.2
2019-03-04T08:17:03.171Z,40.6
2019-03-04T09:16:07.101Z,41.4
2019-03-04T10:57:54.095Z,44.6
2019-03-04T11:07:57.591Z,47.4
2019-03-04T11:18:15.087Z,50.6
2019-03-04T11:28:18.568Z,48.4
2019-03-04T11:38:22.087Z,48.1
2019-03-04T11:48:25.566Z,49
2019-03-04T11:58:29.053Z,48.7
2019-03-04T12:08:32.557Z,49.3
2019-03-04T12:18:36.063Z,49
2019-03-04T12:28:40.565Z,49.5
2019-03-04T12:47:03.106Z,49.6
2019-03-04T12:57:06.606Z,48.5
2019-03-04T13:07:10.088Z,48.8
2019-03-04T13:17:13.582Z,47.3
2019-03-04T13:58:22.126Z,48.4
2019-03-04T14:08:25.631Z,47.9
2019-03-04T14:18:29.105Z,47.3
2019-03-04T14:28:33.637Z,47.4
2019-03-04T14:38:37.198Z,45.7
2019-03-04T14:48:40.702Z,44.7
2019-03-04T15:06:07.423Z,45.7
2019-03-04T15:16:10.924Z,46
2019-03-04T15:26:14.423Z,46
2019-03-04T15:36:17.949Z,46
2019-03-04T15:46:21.455Z,45.5
2019-03-04T15:56:24.935Z,44.8
2019-03-04T16:06:28.408Z,44.6
2019-03-04T16:16:31.883Z,44.9
2019-03-04T16:26:35.384Z,44.6
2019-03-04T16:36:38.903Z,45
2019-03-04T16:46:42.409Z,45.2
2019-03-04T16:56:45.927Z,45
2019-03-04T17:06:49.498Z,44.2
2019-03-04T17:16:52.998Z,44.1
2019-03-04T17:26:56.497Z,44.5
2019-03-04T17:37:00.095Z,44.9
2019-03-04T17:47:03.609Z,44.7
2019-03-04T17:57:07.143Z,44.8
2019-03-04T18:07:10.630Z,45.7
2019-03-04T18:17:14.107Z,44.6
2019-03-04T18:27:17.603Z,44.5
2019-03-04T18:37:21.077Z,44
2019-03-04T18:47:24.580Z,43.2
2019-03-04T18:57:28.098Z,43.1
2019-03-04T19:07:31.583Z,42.7
2019-03-04T19:17:35.065Z,42.3
2019-03-04T19:27:38.562Z,42.5
2019-03-04T19:37:42.076Z,42.3
2019-03-04T19:47:45.670Z,42.2
2019-03-04T19:57:49.191Z,41.6
2019-03-04T20:07:52.703Z,42
2019-03-04T20:17:56.823Z,41.8
2019-03-04T20:28:00.348Z,41.5
2019-03-04T20:38:03.829Z,41.4
2019-03-04T20:48:07.350Z,41.1
2019-03-04T20:58:10.858Z,41.2
2019-03-04T21:08:14.341Z,41.4
2019-03-04T21:18:17.826Z,41.7
2019-03-04T21:28:21.379Z,41.7
2019-03-04T21:38:24.891Z,41.8
2019-03-04T21:48:28.400Z,41.8
2019-03-04T21:58:31.921Z,41.8
2019-03-04T22:08:35.451Z,41.9
2019-03-04T22:18:38.939Z,42
2019-03-04T22:28:42.469Z,42
2019-03-04T22:38:46.026Z,42
2019-03-04T22:48:49.564Z,42.1
2019-03-04T22:58:53.105Z,42.2
2019-03-04T23:08:56.600Z,42
2019-03-04T23:19:00.081Z,42.2
2019-03-04T23:29:03.579Z,42.1
2019-03-04T23:39:07.102Z,42.1
2019-03-04T23:49:10.601Z,42.1
2019-03-04T23:59:14.122Z,42
